sensor_id;sensor_type;location;lat;lon;timestamp;pressure;altitude;pressure_sealevel;temperature;humidity
76547;BME280;65390;53.014;8.886;2022-12-05T00:00:51;101898.94;;;3.43;100.00
76547;BME280;65390;53.014;8.886;2022-12-05T00:03:18;101891.09;;;3.37;100.00
76547;BME280;65390;53.014;8.886;2022-12-05T00:05:45;101863.16;;;3.19;100.00
76547;BME280;65390;53.014;8.886;2022-12-05T00:08:11;101881.59;;;3.26;100.00
76547;BME280;65390;53.014;8.886;2022-12-05T00:10:38;101914.78;;;3.46;100.00
76547;BME280;65390;53.014;8.886;2022-12-05T00:13:05;101882.31;;;3.34;100.00
76547;BME280;65390;53.014;8.886;2022-12-05T00:15:39;101870.91;;;3.31;100.00
76547;BME280;65390;53.014;8.886;2022-12-05T00:18:06;101869.88;;;3.38;100.00
76547;BME280;65390;53.014;8.886;2022-12-05T00:20:33;101859.41;;;3.32;100.00
76547;BME280;65390;53.014;8.886;2022-12-05T00:22:59;101849.84;;;3.22;100.00
76547;BME280;65390;53.014;8.886;2022-12-05T00:25:26;101893.41;;;3.53;100.00
76547;BME280;65390;53.014;8.886;2022-12-05T00:27:53;101853.22;;;3.31;100.00
76547;BME280;65390;53.014;8.886;2022-12-05T00:30:19;101894.31;;;3.52;100.00
76547;BME280;65390;53.014;8.886;2022-12-05T00:32:46;101852.41;;;3.28;100.00
76547;BME280;65390;53.014;8.886;2022-12-05T00:35:13;101832.25;;;3.19;100.00
76547;BME280;65390;53.014;8.886;2022-12-05T00:37:38;101845.44;;;3.24;100.00
76547;BME280;65390;53.014;8.886;2022-12-05T00:40:05;101860.16;;;3.37;100.00
76547;BME280;65390;53.014;8.886;2022-12-05T00:42:32;101884.47;;;3.59;100.00
76547;BME280;65390;53.014;8.886;2022-12-05T00:44:59;101848.63;;;3.40;100.00
76547;BME280;65390;53.014;8.886;2022-12-05T00:47:24;101861.75;;;3.47;100.00
76547;BME280;65390;53.014;8.886;2022-12-05T00:49:51;101866.25;;;3.44;100.00
76547;BME280;65390;53.014;8.886;2022-12-05T00:52:17;101846.88;;;3.39;100.00
76547;BME280;65390;53.014;8.886;2022-12-05T00:54:44;101877.53;;;3.53;100.00
76547;BME280;65390;53.014;8.886;2022-12-05T00:57:10;101856.63;;;3.38;100.00
76547;BME280;65390;53.014;8.886;2022-12-05T00:59:37;101837.31;;;3.31;100.00
76547;BME280;65390;53.014;8.886;2022-12-05T01:02:05;101811.06;;;3.19;100.00
76547;BME280;65390;53.014;8.886;2022-12-05T01:04:31;101862.72;;;3.43;100.00
76547;BME280;65390;53.014;8.886;2022-12-05T01:06:58;101858.34;;;3.39;100.00
76547;BME280;65390;53.014;8.886;2022-12-05T01:09:25;101876.66;;;3.53;100.00
76547;BME280;65390;53.014;8.886;2022-12-05T01:11:52;101881.94;;;3.53;100.00
76547;BME280;65390;53.014;8.886;2022-12-05T01:14:20;101852.28;;;3.34;100.00
76547;BME280;65390;53.014;8.886;2022-12-05T01:16:48;101839.97;;;3.31;100.00
76547;BME280;65390;53.014;8.886;2022-12-05T01:19:25;101890.66;;;3.58;100.00
76547;BME280;65390;53.014;8.886;2022-12-05T01:21:53;101850.41;;;3.39;100.00
76547;BME280;65390;53.014;8.886;2022-12-05T01:24:21;101862.66;;;3.46;100.00
76547;BME280;65390;53.014;8.886;2022-12-05T01:26:48;101881.91;;;3.54;100.00
76547;BME280;65390;53.014;8.886;2022-12-05T01:29:17;101871.47;;;3.47;100.00
76547;BME280;65390;53.014;8.886;2022-12-05T01:31:44;101881.00;;;3.55;100.00
76547;BME280;65390;53.014;8.886;2022-12-05T01:34:13;101860.88;;;3.47;100.00
76547;BME280;65390;53.014;8.886;2022-12-05T01:36:41;101839.78;;;3.41;100.00
76547;BME280;65390;53.014;8.886;2022-12-05T01:39:11;101848.56;;;3.44;100.00
76547;BME280;65390;53.014;8.886;2022-12-05T01:41:41;101854.81;;;3.40;100.00
76547;BME280;65390;53.014;8.886;2022-12-05T01:46:47;101847.91;;;3.33;100.00
76547;BME280;65390;53.014;8.886;2022-12-05T01:49:29;101893.31;;;3.58;100.00
76547;BME280;65390;53.014;8.886;2022-12-05T01:52:03;101876.78;;;3.47;100.00
76547;BME280;65390;53.014;8.886;2022-12-05T01:54:31;101881.19;;;3.46;100.00
76547;BME280;65390;53.014;8.886;2022-12-05T01:57:02;101877.66;;;3.47;100.00
76547;BME280;65390;53.014;8.886;2022-12-05T01:59:31;101859.22;;;3.40;100.00
76547;BME280;65390;53.014;8.886;2022-12-05T02:02:00;101856.72;;;3.33;100.00
76547;BME280;65390;53.014;8.886;2022-12-05T02:04:26;101850.50;;;3.34;100.00
76547;BME280;65390;53.014;8.886;2022-12-05T02:06:54;101875.72;;;3.55;100.00
76547;BME280;65390;53.014;8.886;2022-12-05T02:09:21;101862.72;;;3.43;100.00
76547;BME280;65390;53.014;8.886;2022-12-05T02:11:57;101884.50;;;3.57;100.00
76547;BME280;65390;53.014;8.886;2022-12-05T02:31:31;101834.09;;;3.60;100.00
76547;BME280;65390;53.014;8.886;2022-12-05T02:37:13;101824.53;;;3.53;100.00
76547;BME280;65390;53.014;8.886;2022-12-05T02:40:13;101823.50;;;3.59;100.00
76547;BME280;65390;53.014;8.886;2022-12-05T02:42:47;101839.44;;;3.57;100.00
76547;BME280;65390;53.014;8.886;2022-12-05T02:45:19;101840.44;;;3.52;100.00
76547;BME280;65390;53.014;8.886;2022-12-05T02:47:51;101838.59;;;3.55;100.00
76547;BME280;65390;53.014;8.886;2022-12-05T02:50:21;101825.47;;;3.51;100.00
76547;BME280;65390;53.014;8.886;2022-12-05T02:52:51;101805.41;;;3.38;100.00
76547;BME280;65390;53.014;8.886;2022-12-05T02:55:19;101797.59;;;3.31;100.00
76547;BME280;65390;53.014;8.886;2022-12-05T02:57:53;101849.06;;;3.63;100.00
76547;BME280;65390;53.014;8.886;2022-12-05T03:00:21;101805.38;;;3.39;100.00
76547;BME280;65390;53.014;8.886;2022-12-05T03:02:47;101822.91;;;3.46;100.00
76547;BME280;65390;53.014;8.886;2022-12-05T03:08:18;101853.34;;;3.69;100.00
76547;BME280;65390;53.014;8.886;2022-12-05T03:10:48;101836.88;;;3.54;100.00
76547;BME280;65390;53.014;8.886;2022-12-05T03:13:21;101816.66;;;3.49;100.00
76547;BME280;65390;53.014;8.886;2022-12-05T03:16:01;101828.88;;;3.56;100.00
76547;BME280;65390;53.014;8.886;2022-12-05T03:18:40;101813.00;;;3.54;100.00
76547;BME280;65390;53.014;8.886;2022-12-05T03:21:36;101825.31;;;3.57;100.00
76547;BME280;65390;53.014;8.886;2022-12-05T03:24:09;101807.78;;;3.51;100.00
76547;BME280;65390;53.014;8.886;2022-12-05T03:39:02;101859.59;;;3.66;100.00
76547;BME280;65390;53.014;8.886;2022-12-05T03:41:54;101823.66;;;3.53;100.00
76547;BME280;65390;53.014;8.886;2022-12-05T03:44:33;101820.22;;;3.48;100.00
76547;BME280;65390;53.014;8.886;2022-12-05T03:47:12;101841.16;;;3.61;100.00
76547;BME280;65390;53.014;8.886;2022-12-05T03:49:55;101854.09;;;3.75;100.00
76547;BME280;65390;53.014;8.886;2022-12-05T03:52:42;101851.41;;;3.77;100.00
76547;BME280;65390;53.014;8.886;2022-12-05T03:55:11;101820.06;;;3.55;100.00
76547;BME280;65390;53.014;8.886;2022-12-05T03:58:01;101834.66;;;3.75;100.00
76547;BME280;65390;53.014;8.886;2022-12-05T04:00:35;101826.03;;;3.67;100.00
76547;BME280;65390;53.014;8.886;2022-12-05T04:03:17;101831.00;;;3.82;100.00
76547;BME280;65390;53.014;8.886;2022-12-05T04:05:58;101841.28;;;3.97;100.00
76547;BME280;65390;53.014;8.886;2022-12-05T04:08:36;101808.13;;;3.78;100.00
76547;BME280;65390;53.014;8.886;2022-12-05T04:11:08;101843.19;;;3.89;100.00
76547;BME280;65390;53.014;8.886;2022-12-05T04:13:40;101831.75;;;3.87;100.00
76547;BME280;65390;53.014;8.886;2022-12-05T04:16:22;101819.41;;;3.86;100.00
76547;BME280;65390;53.014;8.886;2022-12-05T04:19:17;101817.69;;;3.83;100.00
76547;BME280;65390;53.014;8.886;2022-12-05T04:21:53;101835.91;;;4.00;100.00
76547;BME280;65390;53.014;8.886;2022-12-05T04:24:26;101827.19;;;3.95;100.00
76547;BME280;65390;53.014;8.886;2022-12-05T04:27:18;101841.06;;;4.06;100.00
76547;BME280;65390;53.014;8.886;2022-12-05T04:30:05;101854.22;;;4.11;100.00
76547;BME280;65390;53.014;8.886;2022-12-05T04:32:46;101827.00;;;4.03;100.00
76547;BME280;65390;53.014;8.886;2022-12-05T04:35:45;101840.88;;;4.15;100.00
76547;BME280;65390;53.014;8.886;2022-12-05T04:38:31;101830.41;;;4.08;100.00
76547;BME280;65390;53.014;8.886;2022-12-05T04:41:02;101857.50;;;4.22;100.00
76547;BME280;65390;53.014;8.886;2022-12-05T04:43:33;101855.69;;;4.24;100.00
76547;BME280;65390;53.014;8.886;2022-12-05T04:46:05;101829.25;;;4.19;100.00
76547;BME280;65390;53.014;8.886;2022-12-05T04:48:36;101829.34;;;4.16;100.00
76547;BME280;65390;53.014;8.886;2022-12-05T04:51:07;101834.69;;;4.15;100.00
76547;BME280;65390;53.014;8.886;2022-12-05T04:53:35;101838.13;;;4.18;100.00
76547;BME280;65390;53.014;8.886;2022-12-05T04:56:03;101825.09;;;4.08;100.00
76547;BME280;65390;53.014;8.886;2022-12-05T04:58:30;101822.53;;;4.05;100.00
76547;BME280;65390;53.014;8.886;2022-12-05T05:03:52;101824.16;;;4.10;100.00
76547;BME280;65390;53.014;8.886;2022-12-05T05:06:20;101825.63;;;4.23;100.00
76547;BME280;65390;53.014;8.886;2022-12-05T05:08:55;101833.53;;;4.25;100.00
76547;BME280;65390;53.014;8.886;2022-12-05T05:11:31;101826.59;;;4.19;100.00
76547;BME280;65390;53.014;8.886;2022-12-05T05:13:58;101829.97;;;4.26;100.00
76547;BME280;65390;53.014;8.886;2022-12-05T05:16:36;101827.38;;;4.24;100.00
76547;BME280;65390;53.014;8.886;2022-12-05T05:19:03;101841.44;;;4.28;100.00
76547;BME280;65390;53.014;8.886;2022-12-05T05:21:32;101829.16;;;4.24;100.00
76547;BME280;65390;53.014;8.886;2022-12-05T05:24:03;101827.41;;;4.23;100.00
76547;BME280;65390;53.014;8.886;2022-12-05T05:26:33;101831.75;;;4.25;100.00
76547;BME280;65390;53.014;8.886;2022-12-05T05:29:00;101831.16;;;4.13;100.00
76547;BME280;65390;53.014;8.886;2022-12-05T05:31:26;101852.09;;;4.27;100.00
76547;BME280;65390;53.014;8.886;2022-12-05T05:33:56;101813.78;;;4.01;100.00
76547;BME280;65390;53.014;8.886;2022-12-05T05:36:24;101846.69;;;4.31;100.00
76547;BME280;65390;53.014;8.886;2022-12-05T05:38:54;101802.97;;;4.09;100.00
76547;BME280;65390;53.014;8.886;2022-12-05T05:41:38;101824.81;;;4.20;100.00
76547;BME280;65390;53.014;8.886;2022-12-05T05:44:05;101819.63;;;4.15;100.00
76547;BME280;65390;53.014;8.886;2022-12-05T05:46:33;101832.78;;;4.20;100.00
76547;BME280;65390;53.014;8.886;2022-12-05T05:49:00;101822.22;;;4.18;100.00
76547;BME280;65390;53.014;8.886;2022-12-05T05:51:25;101829.91;;;4.29;100.00
76547;BME280;65390;53.014;8.886;2022-12-05T05:53:56;101827.22;;;4.31;100.00
76547;BME280;65390;53.014;8.886;2022-12-05T05:56:23;101857.75;;;4.48;100.00
76547;BME280;65390;53.014;8.886;2022-12-05T05:58:58;101804.53;;;4.19;100.00
76547;BME280;65390;53.014;8.886;2022-12-05T06:01:26;101836.78;;;4.38;100.00
76547;BME280;65390;53.014;8.886;2022-12-05T06:03:54;101827.81;;;4.43;100.00
76547;BME280;65390;53.014;8.886;2022-12-05T06:06:21;101840.75;;;4.57;100.00
76547;BME280;65390;53.014;8.886;2022-12-05T06:08:50;101828.72;;;4.42;100.00
76547;BME280;65390;53.014;8.886;2022-12-05T06:11:19;101817.25;;;4.40;100.00
76547;BME280;65390;53.014;8.886;2022-12-05T06:13:46;101826.72;;;4.52;100.00
76547;BME280;65390;53.014;8.886;2022-12-05T06:16:14;101852.84;;;4.69;100.00
76547;BME280;65390;53.014;8.886;2022-12-05T06:18:41;101833.72;;;4.54;100.00
76547;BME280;65390;53.014;8.886;2022-12-05T06:21:09;101813.66;;;4.43;100.00
76547;BME280;65390;53.014;8.886;2022-12-05T06:23:36;101837.31;;;4.53;100.00
76547;BME280;65390;53.014;8.886;2022-12-05T06:26:04;101810.41;;;4.32;100.00
76547;BME280;65390;53.014;8.886;2022-12-05T06:28:31;101856.47;;;4.65;100.00
76547;BME280;65390;53.014;8.886;2022-12-05T06:30:58;101818.97;;;4.43;100.00
76547;BME280;65390;53.014;8.886;2022-12-05T06:33:24;101830.38;;;4.46;100.00
76547;BME280;65390;53.014;8.886;2022-12-05T06:36:01;101837.25;;;4.55;100.00
76547;BME280;65390;53.014;8.886;2022-12-05T06:38:28;101831.19;;;4.50;100.00
76547;BME280;65390;53.014;8.886;2022-12-05T06:40:55;101849.63;;;4.56;100.00
76547;BME280;65390;53.014;8.886;2022-12-05T06:43:22;101830.50;;;4.42;100.00
76547;BME280;65390;53.014;8.886;2022-12-05T06:45:48;101823.56;;;4.36;100.00
76547;BME280;65390;53.014;8.886;2022-12-05T06:48:15;101831.66;;;4.30;100.00
76547;BME280;65390;53.014;8.886;2022-12-05T06:50:51;101830.47;;;4.43;100.00
76547;BME280;65390;53.014;8.886;2022-12-05T06:53:18;101834.94;;;4.41;100.00
76547;BME280;65390;53.014;8.886;2022-12-05T06:55:58;101855.03;;;4.51;100.00
76547;BME280;65390;53.014;8.886;2022-12-05T06:58:26;101833.88;;;4.48;100.00
76547;BME280;65390;53.014;8.886;2022-12-05T07:00:52;101826.34;;;4.30;100.00
76547;BME280;65390;53.014;8.886;2022-12-05T07:03:37;101832.50;;;4.32;100.00
76547;BME280;65390;53.014;8.886;2022-12-05T07:06:05;101860.41;;;4.50;100.00
76547;BME280;65390;53.014;8.886;2022-12-05T07:08:35;101838.63;;;4.36;100.00
76547;BME280;65390;53.014;8.886;2022-12-05T07:11:02;101841.13;;;4.42;100.00
76547;BME280;65390;53.014;8.886;2022-12-05T07:13:29;101852.47;;;4.47;100.00
76547;BME280;65390;53.014;8.886;2022-12-05T07:15:54;101820.03;;;4.36;100.00
76547;BME280;65390;53.014;8.886;2022-12-05T07:18:20;101853.97;;;4.59;100.00
76547;BME280;65390;53.014;8.886;2022-12-05T07:20:55;101836.56;;;4.47;100.00
76547;BME280;65390;53.014;8.886;2022-12-05T07:23:21;101826.97;;;4.41;100.00
76547;BME280;65390;53.014;8.886;2022-12-05T07:25:49;101839.22;;;4.47;100.00
76547;BME280;65390;53.014;8.886;2022-12-05T07:28:15;101840.06;;;4.49;100.00
76547;BME280;65390;53.014;8.886;2022-12-05T07:30:40;101831.31;;;4.44;100.00
76547;BME280;65390;53.014;8.886;2022-12-05T07:33:06;101847.91;;;4.53;100.00
76547;BME280;65390;53.014;8.886;2022-12-05T07:35:36;101820.78;;;4.41;100.00
76547;BME280;65390;53.014;8.886;2022-12-05T07:38:02;101807.75;;;4.30;100.00
76547;BME280;65390;53.014;8.886;2022-12-05T07:40:27;101844.47;;;4.48;100.00
76547;BME280;65390;53.014;8.886;2022-12-05T07:42:58;101866.53;;;4.52;100.00
76547;BME280;65390;53.014;8.886;2022-12-05T07:45:27;101863.88;;;4.52;100.00
76547;BME280;65390;53.014;8.886;2022-12-05T07:47:52;101859.53;;;4.49;100.00
76547;BME280;65390;53.014;8.886;2022-12-05T07:50:17;101850.63;;;4.52;100.00
76547;BME280;65390;53.014;8.886;2022-12-05T07:52:44;101840.06;;;4.47;100.00
76547;BME280;65390;53.014;8.886;2022-12-05T07:55:09;101847.03;;;4.53;100.00
76547;BME280;65390;53.014;8.886;2022-12-05T07:57:36;101832.03;;;4.52;100.00
76547;BME280;65390;53.014;8.886;2022-12-05T08:00:03;101861.00;;;4.61;100.00
76547;BME280;65390;53.014;8.886;2022-12-05T08:02:30;101841.03;;;4.45;100.00
76547;BME280;65390;53.014;8.886;2022-12-05T08:05:00;101813.94;;;4.32;100.00
76547;BME280;65390;53.014;8.886;2022-12-05T08:07:33;101835.16;;;4.32;100.00
76547;BME280;65390;53.014;8.886;2022-12-05T08:10:03;101839.50;;;4.36;100.00
76547;BME280;65390;53.014;8.886;2022-12-05T08:12:29;101829.03;;;4.29;100.00
76547;BME280;65390;53.014;8.886;2022-12-05T08:14:56;101853.34;;;4.49;100.00
76547;BME280;65390;53.014;8.886;2022-12-05T08:17:22;101839.22;;;4.47;100.00
76547;BME280;65390;53.014;8.886;2022-12-05T08:19:49;101845.63;;;4.38;100.00
76547;BME280;65390;53.014;8.886;2022-12-05T08:22:16;101834.22;;;4.35;100.00
76547;BME280;65390;53.014;8.886;2022-12-05T08:24:43;101836.13;;;4.28;100.00
76547;BME280;65390;53.014;8.886;2022-12-05T08:27:10;101827.44;;;4.21;100.00
76547;BME280;65390;53.014;8.886;2022-12-05T08:29:38;101852.88;;;4.32;100.00
76547;BME280;65390;53.014;8.886;2022-12-05T08:32:05;101854.53;;;4.36;100.00
76547;BME280;65390;53.014;8.886;2022-12-05T08:34:31;101857.16;;;4.37;100.00
76547;BME280;65390;53.014;8.886;2022-12-05T08:36:58;101838.72;;;4.31;100.00
76547;BME280;65390;53.014;8.886;2022-12-05T08:39:25;101847.38;;;4.39;100.00
76547;BME280;65390;53.014;8.886;2022-12-05T08:41:52;101851.66;;;4.45;100.00
76547;BME280;65390;53.014;8.886;2022-12-05T08:44:19;101852.44;;;4.50;100.00
76547;BME280;65390;53.014;8.886;2022-12-05T08:46:48;101846.09;;;4.55;100.00
76547;BME280;65390;53.014;8.886;2022-12-05T08:49:15;101854.66;;;4.67;100.00
76547;BME280;65390;53.014;8.886;2022-12-05T08:51:42;101887.84;;;4.84;100.00
76547;BME280;65390;53.014;8.886;2022-12-05T08:54:09;101855.50;;;4.69;100.00
76547;BME280;65390;53.014;8.886;2022-12-05T08:56:36;101845.03;;;4.63;100.00
76547;BME280;65390;53.014;8.886;2022-12-05T08:59:05;101839.72;;;4.63;100.00
76547;BME280;65390;53.014;8.886;2022-12-05T09:01:35;101887.88;;;4.83;100.00
76547;BME280;65390;53.014;8.886;2022-12-05T09:04:04;101851.41;;;4.55;100.00
76547;BME280;65390;53.014;8.886;2022-12-05T09:06:31;101856.66;;;4.57;100.00
76547;BME280;65390;53.014;8.886;2022-12-05T09:09:03;101866.34;;;4.60;100.00
76547;BME280;65390;53.014;8.886;2022-12-05T09:11:33;101848.00;;;4.50;100.00
76547;BME280;65390;53.014;8.886;2022-12-05T09:14:01;101873.31;;;4.64;100.00
76547;BME280;65390;53.014;8.886;2022-12-05T09:16:30;101871.94;;;4.49;100.00
76547;BME280;65390;53.014;8.886;2022-12-05T09:18:57;101893.84;;;4.57;100.00
76547;BME280;65390;53.014;8.886;2022-12-05T09:21:26;101898.19;;;4.60;100.00
76547;BME280;65390;53.014;8.886;2022-12-05T09:23:54;101892.69;;;4.69;100.00
76547;BME280;65390;53.014;8.886;2022-12-05T09:26:23;101873.56;;;4.54;100.00
76547;BME280;65390;53.014;8.886;2022-12-05T09:28:50;101850.81;;;4.43;100.00
76547;BME280;65390;53.014;8.886;2022-12-05T09:31:20;101868.56;;;4.41;100.00
76547;BME280;65390;53.014;8.886;2022-12-05T09:33:48;101881.03;;;4.37;100.00
76547;BME280;65390;53.014;8.886;2022-12-05T09:36:21;101879.97;;;4.44;100.00
76547;BME280;65390;53.014;8.886;2022-12-05T09:38:47;101872.09;;;4.41;100.00
76547;BME280;65390;53.014;8.886;2022-12-05T09:45:36;101900.69;;;4.66;100.00
76547;BME280;65390;53.014;8.886;2022-12-05T09:48:05;101899.69;;;4.71;100.00
76547;BME280;65390;53.014;8.886;2022-12-05T09:50:46;101864.28;;;4.35;100.00
76547;BME280;65390;53.014;8.886;2022-12-05T09:53:39;101901.09;;;4.50;100.00
76547;BME280;65390;53.014;8.886;2022-12-05T09:58:52;101895.38;;;4.29;100.00
76547;BME280;65390;53.014;8.886;2022-12-05T10:01:42;101900.25;;;4.47;100.00
76547;BME280;65390;53.014;8.886;2022-12-05T10:15:39;101880.19;;;4.35;100.00
76547;BME280;65390;53.014;8.886;2022-12-05T10:18:51;101885.69;;;4.26;100.00
76547;BME280;65390;53.014;8.886;2022-12-05T10:24:36;101866.88;;;3.98;100.00
76547;BME280;65390;53.014;8.886;2022-12-05T10:27:35;101861.66;;;3.93;100.00
76547;BME280;65390;53.014;8.886;2022-12-05T10:30:21;101900.13;;;4.13;100.00
76547;BME280;65390;53.014;8.886;2022-12-05T10:32:59;101846.44;;;3.61;100.00
76547;BME280;65390;53.014;8.886;2022-12-05T10:35:33;101861.28;;;3.70;100.00
76547;BME280;65390;53.014;8.886;2022-12-05T10:40:42;101884.16;;;3.74;100.00
76547;BME280;65390;53.014;8.886;2022-12-05T10:43:22;101861.41;;;3.64;100.00
76547;BME280;65390;53.014;8.886;2022-12-05T10:45:49;101859.53;;;3.69;100.00
76547;BME280;65390;53.014;8.886;2022-12-05T10:48:18;101885.44;;;3.98;100.00
76547;BME280;65390;53.014;8.886;2022-12-05T10:50:48;101849.47;;;3.85;100.00
76547;BME280;65390;53.014;8.886;2022-12-05T10:53:20;101868.56;;;4.02;100.00
76547;BME280;65390;53.014;8.886;2022-12-05T10:55:49;101865.84;;;4.05;100.00
76547;BME280;65390;53.014;8.886;2022-12-05T10:58:27;101876.16;;;4.19;100.00
76547;BME280;65390;53.014;8.886;2022-12-05T11:00:56;101845.47;;;4.06;100.00
76547;BME280;65390;53.014;8.886;2022-12-05T11:05:54;101842.06;;;4.01;100.00
76547;BME280;65390;53.014;8.886;2022-12-05T11:08:31;101810.66;;;3.82;100.00
76547;BME280;65390;53.014;8.886;2022-12-05T11:11:26;101852.94;;;3.88;100.00
76547;BME280;65390;53.014;8.886;2022-12-05T11:16:28;101831.91;;;3.81;100.00
76547;BME280;65390;53.014;8.886;2022-12-05T11:18:59;101843.13;;;3.92;100.00
76547;BME280;65390;53.014;8.886;2022-12-05T11:21:42;101831.09;;;3.77;100.00
76547;BME280;65390;53.014;8.886;2022-12-05T11:24:30;101874.91;;;3.95;100.00
76547;BME280;65390;53.014;8.886;2022-12-05T11:26:58;101872.09;;;4.03;100.00
76547;BME280;65390;53.014;8.886;2022-12-05T11:29:35;101869.31;;;4.07;100.00
76547;BME280;65390;53.014;8.886;2022-12-05T11:32:16;101843.56;;;3.72;100.00
76547;BME280;65390;53.014;8.886;2022-12-05T11:34:51;101875.00;;;3.90;100.00
76547;BME280;65390;53.014;8.886;2022-12-05T11:37:48;101820.53;;;3.74;100.00
76547;BME280;65390;53.014;8.886;2022-12-05T11:40:24;101860.72;;;3.98;100.00
76547;BME280;65390;53.014;8.886;2022-12-05T11:51:41;101801.84;;;3.82;100.00
76547;BME280;65390;53.014;8.886;2022-12-05T11:54:21;101849.69;;;4.16;100.00
76547;BME280;65390;53.014;8.886;2022-12-05T12:05:18;101862.78;;;4.23;100.00
76547;BME280;65390;53.014;8.886;2022-12-05T12:13:44;101860.75;;;4.35;100.00
76547;BME280;65390;53.014;8.886;2022-12-05T12:19:29;101860.47;;;4.45;100.00
76547;BME280;65390;53.014;8.886;2022-12-05T12:22:30;101802.13;;;4.07;100.00
76547;BME280;65390;53.014;8.886;2022-12-05T12:28:28;101831.97;;;4.18;100.00
76547;BME280;65390;53.014;8.886;2022-12-05T12:34:04;101800.34;;;4.07;100.00
76547;BME280;65390;53.014;8.886;2022-12-05T12:36:52;101836.88;;;4.35;100.00
76547;BME280;65390;53.014;8.886;2022-12-05T12:47:31;101847.44;;;3.98;100.00
76547;BME280;65390;53.014;8.886;2022-12-05T12:50:23;101847.59;;;3.90;100.00
76547;BME280;65390;53.014;8.886;2022-12-05T13:02:36;101848.78;;;3.75;100.00
76547;BME280;65390;53.014;8.886;2022-12-05T13:05:41;101828.81;;;3.60;100.00
76547;BME280;65390;53.014;8.886;2022-12-05T13:08:37;101848.16;;;3.64;100.00
76547;BME280;65390;53.014;8.886;2022-12-05T13:11:24;101844.75;;;3.57;100.00
76547;BME280;65390;53.014;8.886;2022-12-05T13:14:10;101824.59;;;3.50;100.00
76547;BME280;65390;53.014;8.886;2022-12-05T13:16:47;101842.72;;;3.70;100.00
76547;BME280;65390;53.014;8.886;2022-12-05T13:22:36;101806.41;;;3.74;100.00
76547;BME280;65390;53.014;8.886;2022-12-05T13:25:18;101816.88;;;3.81;100.00
76547;BME280;65390;53.014;8.886;2022-12-05T13:28:04;101780.00;;;3.69;100.00
76547;BME280;65390;53.014;8.886;2022-12-05T13:30:34;101843.78;;;4.03;100.00
76547;BME280;65390;53.014;8.886;2022-12-05T13:33:47;101784.97;;;3.84;100.00
76547;BME280;65390;53.014;8.886;2022-12-05T13:36:24;101841.78;;;4.14;100.00
76547;BME280;65390;53.014;8.886;2022-12-05T13:39:28;101826.09;;;4.04;100.00
76547;BME280;65390;53.014;8.886;2022-12-05T13:42:29;101825.13;;;4.06;100.00
76547;BME280;65390;53.014;8.886;2022-12-05T13:45:14;101819.91;;;4.03;100.00
76547;BME280;65390;53.014;8.886;2022-12-05T13:51:44;101772.78;;;3.77;100.00
76547;BME280;65390;53.014;8.886;2022-12-05T13:54:24;101835.25;;;4.28;100.00
76547;BME280;65390;53.014;8.886;2022-12-05T14:08:00;101844.94;;;3.90;100.00
76547;BME280;65390;53.014;8.886;2022-12-05T14:11:22;101804.94;;;3.60;100.00
76547;BME280;65390;53.014;8.886;2022-12-05T14:17:48;101791.19;;;3.43;100.00
76547;BME280;65390;53.014;8.886;2022-12-05T14:23:38;101854.50;;;3.55;100.00
76547;BME280;65390;53.014;8.886;2022-12-05T14:32:09;101850.59;;;3.30;100.00
76547;BME280;65390;53.014;8.886;2022-12-05T14:34:39;101799.19;;;2.94;100.00
76547;BME280;65390;53.014;8.886;2022-12-05T14:37:36;101839.22;;;3.25;100.00
76547;BME280;65390;53.014;8.886;2022-12-05T14:43:05;101851.75;;;3.15;100.00
76547;BME280;65390;53.014;8.886;2022-12-05T14:45:41;101860.41;;;3.26;100.00
76547;BME280;65390;53.014;8.886;2022-12-05T14:56:57;101852.00;;;3.49;100.00
76547;BME280;65390;53.014;8.886;2022-12-05T15:00:23;101855.28;;;3.62;100.00
76547;BME280;65390;53.014;8.886;2022-12-05T15:03:00;101858.88;;;3.58;100.00
76547;BME280;65390;53.014;8.886;2022-12-05T15:05:47;101805.59;;;3.28;100.00
76547;BME280;65390;53.014;8.886;2022-12-05T15:08:16;101794.19;;;3.25;100.00
76547;BME280;65390;53.014;8.886;2022-12-05T15:10:49;101799.44;;;3.28;100.00
76547;BME280;65390;53.014;8.886;2022-12-05T15:13:18;101806.34;;;3.35;100.00
76547;BME280;65390;53.014;8.886;2022-12-05T15:16:14;101858.72;;;3.66;100.00
76547;BME280;65390;53.014;8.886;2022-12-05T15:18:52;101862.38;;;3.60;100.00
76547;BME280;65390;53.014;8.886;2022-12-05T15:21:43;101839.66;;;3.48;100.00
76547;BME280;65390;53.014;8.886;2022-12-05T15:24:20;101794.22;;;3.22;100.00
76547;BME280;65390;53.014;8.886;2022-12-05T15:29:43;101820.84;;;3.16;100.00
76547;BME280;65390;53.014;8.886;2022-12-05T15:32:24;101833.31;;;3.11;100.00
76547;BME280;65390;53.014;8.886;2022-12-05T15:35:16;101848.22;;;3.16;100.00
76547;BME280;65390;53.014;8.886;2022-12-05T15:40:32;101816.03;;;2.91;100.00
76547;BME280;65390;53.014;8.886;2022-12-05T15:43:32;101879.81;;;3.27;100.00
76547;BME280;65390;53.014;8.886;2022-12-05T15:46:24;101859.00;;;3.07;100.00
76547;BME280;65390;53.014;8.886;2022-12-05T15:49:01;101878.03;;;3.27;100.00
76547;BME280;65390;53.014;8.886;2022-12-05T15:51:49;101831.84;;;2.94;100.00
76547;BME280;65390;53.014;8.886;2022-12-05T15:54:31;101830.06;;;2.95;100.00
76547;BME280;65390;53.014;8.886;2022-12-05T15:57:18;101859.00;;;3.07;100.00
76547;BME280;65390;53.014;8.886;2022-12-05T16:03:03;101887.75;;;3.27;100.00
76547;BME280;65390;53.014;8.886;2022-12-05T16:05:44;101877.16;;;3.27;100.00
76547;BME280;65390;53.014;8.886;2022-12-05T16:08:28;101886.78;;;3.31;100.00
76547;BME280;65390;53.014;8.886;2022-12-05T16:11:10;101859.69;;;3.17;100.00
76547;BME280;65390;53.014;8.886;2022-12-05T16:14:00;101881.41;;;3.36;100.00
76547;BME280;65390;53.014;8.886;2022-12-05T16:16:37;101821.84;;;3.10;100.00